createdAt,value
2018-03-03T00:00:42.768Z,247.65
2018-03-03T00:01:31.812Z,229.20
2018-03-03T00:02:20.879Z,246.35
2018-03-03T00:03:09.927Z,242.50
2018-03-03T00:03:58.983Z,230.15
2018-03-03T00:04:48.047Z,221.02
2018-03-03T00:05:37.115Z,204.18
2018-03-03T00:06:26.198Z,277.55
2018-03-03T00:07:15.275Z,222.70
2018-03-03T00:08:04.314Z,246.23
2018-03-03T00:08:53.362Z,239.90
2018-03-03T00:09:42.412Z,250.13
2018-03-03T00:10:31.459Z,254.15
2018-03-03T00:11:20.528Z,234.68
2018-03-03T00:12:09.735Z,241.65
2018-03-03T00:12:58.880Z,230.68
2018-03-03T00:13:47.936Z,236.77
2018-03-03T00:14:36.982Z,230.80
2018-03-03T00:15:26.051Z,224.30
2018-03-03T00:16:15.098Z,232.05
2018-03-03T00:17:04.158Z,252.60
2018-03-03T00:17:53.201Z,252.18
2018-03-03T00:18:42.317Z,236.60
2018-03-03T00:19:31.393Z,242.35
2018-03-03T00:20:20.448Z,228.77
2018-03-03T00:21:09.496Z,225.32
2018-03-03T00:21:58.546Z,211.50
2018-03-03T00:22:47.592Z,221.90
2018-03-03T00:23:36.649Z,248.38
2018-03-03T00:24:25.691Z,241.32
2018-03-03T00:25:14.793Z,228.65
2018-03-03T00:26:03.844Z,218.55
2018-03-03T00:26:52.909Z,221.57
2018-03-03T00:27:41.958Z,204.18
2018-03-03T00:28:31.020Z,198.65
2018-03-03T00:29:20.084Z,186.70
2018-03-03T00:30:09.245Z,189.77
2018-03-03T00:30:58.298Z,236.48
2018-03-03T00:31:47.353Z,263.60
2018-03-03T00:32:36.400Z,250.30
2018-03-03T00:33:25.454Z,276.52
2018-03-03T00:34:14.519Z,260.45
2018-03-03T00:35:03.594Z,224.40
2018-03-03T00:35:52.696Z,219.93
2018-03-03T00:36:41.747Z,230.35
2018-03-03T00:37:30.808Z,204.05
2018-03-03T00:38:19.875Z,198.85
2018-03-03T00:39:08.922Z,197.50
2018-03-03T00:39:57.975Z,190.60
2018-03-03T00:40:47.030Z,190.43
2018-03-03T00:41:36.175Z,184.98
2018-03-03T00:42:25.239Z,194.25
2018-03-03T00:43:14.306Z,183.12
2018-03-03T00:44:03.373Z,184.60
2018-03-03T00:44:52.409Z,174.10
2018-03-03T00:45:41.464Z,190.45
2018-03-03T00:46:30.505Z,203.65
2018-03-03T00:47:19.711Z,216.68
2018-03-03T00:48:08.820Z,208.00
2018-03-03T00:48:57.874Z,206.30
2018-03-03T00:49:46.931Z,198.25
2018-03-03T00:50:35.976Z,234.75
2018-03-03T00:51:25.024Z,234.35
2018-03-03T00:52:14.177Z,201.32
2018-03-03T00:53:03.238Z,168.55
2018-03-03T00:53:52.282Z,179.18
2018-03-03T00:54:41.329Z,167.55
2018-03-03T00:55:30.377Z,166.95
2018-03-03T00:56:19.414Z,152.98
2018-03-03T00:57:08.453Z,193.60
2018-03-03T00:57:57.556Z,194.73
2018-03-03T00:58:46.601Z,207.05
2018-03-03T00:59:35.686Z,221.30
2018-03-03T01:00:24.722Z,231.60
2018-03-03T01:01:13.781Z,228.75
2018-03-03T01:02:02.827Z,200.27
2018-03-03T01:02:51.867Z,197.18
2018-03-03T01:03:40.945Z,191.65
2018-03-03T01:04:30.188Z,189.48
2018-03-03T01:05:19.238Z,191.43
2018-03-03T01:06:08.282Z,186.25
2018-03-03T01:06:57.338Z,178.68
2018-03-03T01:07:46.401Z,187.80
2018-03-03T01:08:35.449Z,188.95
2018-03-03T01:09:24.649Z,210.35
2018-03-03T01:10:13.806Z,218.77
2018-03-03T01:11:02.846Z,191.85
2018-03-03T01:11:51.902Z,189.77
2018-03-03T01:12:40.953Z,182.70
2018-03-03T01:13:29.994Z,188.95
2018-03-03T01:14:19.041Z,190.30
2018-03-03T01:15:08.088Z,210.55
2018-03-03T01:15:57.188Z,209.60
2018-03-03T01:16:46.230Z,197.85
2018-03-03T01:17:35.275Z,194.13
2018-03-03T01:18:24.336Z,177.38
2018-03-03T01:19:13.394Z,178.38
2018-03-03T01:20:02.437Z,179.02
2018-03-03T01:20:51.478Z,186.60
2018-03-03T01:21:43.102Z,184.68
2018-03-03T01:22:32.157Z,174.27
2018-03-03T01:23:21.205Z,164.70
2018-03-03T01:24:10.257Z,159.55
2018-03-03T01:24:59.294Z,166.45
2018-03-03T01:25:48.473Z,197.30
2018-03-03T01:26:37.520Z,186.75
2018-03-03T01:27:26.592Z,205.10
2018-03-03T01:28:15.634Z,215.23
2018-03-03T01:29:04.707Z,198.93
2018-03-03T01:29:53.762Z,162.95
2018-03-03T01:30:42.817Z,174.75
2018-03-03T01:31:31.902Z,160.93
2018-03-03T01:32:20.945Z,161.27
2018-03-03T01:33:09.989Z,162.45
2018-03-03T01:33:59.056Z,176.27
2018-03-03T01:34:48.100Z,167.57
2018-03-03T01:35:37.153Z,164.02
2018-03-03T01:36:26.203Z,164.88
2018-03-03T01:37:15.285Z,164.88
2018-03-03T01:38:04.349Z,153.50
2018-03-03T01:38:53.417Z,191.45
2018-03-03T01:39:42.488Z,186.77
2018-03-03T01:40:31.532Z,156.20
2018-03-03T01:41:20.574Z,157.73
2018-03-03T01:42:09.678Z,169.30
2018-03-03T01:42:58.879Z,164.45
2018-03-03T01:43:47.924Z,166.70
2018-03-03T01:44:36.957Z,158.85
2018-03-03T01:45:26.001Z,150.73
2018-03-03T01:46:15.091Z,183.77
2018-03-03T01:47:04.133Z,190.80
2018-03-03T01:47:53.241Z,192.37
2018-03-03T01:48:42.298Z,214.88
2018-03-03T01:49:31.348Z,210.25
2018-03-03T01:50:20.446Z,205.48
2018-03-03T01:52:32.111Z,213.37
2018-03-03T01:53:21.162Z,222.18
2018-03-03T01:54:10.241Z,251.50
2018-03-03T01:54:59.414Z,237.50
2018-03-03T01:55:48.484Z,222.75
2018-03-03T01:56:37.527Z,209.32
2018-03-03T01:57:26.721Z,231.73
2018-03-03T01:58:15.774Z,251.20
2018-03-03T01:59:04.831Z,250.60
2018-03-03T01:59:53.914Z,246.55
2018-03-03T02:00:42.960Z,244.98
2018-03-03T02:01:32.037Z,228.95
2018-03-03T02:02:21.084Z,255.48
2018-03-03T02:03:10.173Z,247.35
2018-03-03T02:03:59.225Z,258.83
2018-03-03T02:04:48.275Z,248.77
2018-03-03T02:05:37.322Z,272.80
2018-03-03T02:06:26.365Z,244.23
2018-03-03T02:07:15.423Z,264.35
2018-03-03T02:08:04.475Z,255.60
2018-03-03T02:08:53.694Z,267.58
2018-03-03T02:09:42.741Z,285.13
2018-03-03T02:10:31.791Z,279.90
2018-03-03T02:11:20.854Z,286.55
2018-03-03T02:12:09.899Z,272.42
2018-03-03T02:12:58.967Z,241.85
2018-03-03T02:13:48.036Z,265.95
2018-03-03T02:14:37.251Z,256.08
2018-03-03T02:15:26.303Z,272.23
2018-03-03T02:16:15.380Z,269.13
2018-03-03T02:17:04.418Z,254.95
2018-03-03T02:17:53.468Z,239.12
2018-03-03T02:18:42.511Z,234.23
2018-03-03T02:19:31.561Z,222.35
2018-03-03T02:20:20.667Z,218.82
2018-03-03T02:21:09.733Z,222.85
2018-03-03T02:21:58.801Z,234.77
2018-03-03T02:22:47.860Z,251.25
2018-03-03T02:23:36.901Z,228.75
2018-03-03T02:24:26.022Z,219.65
2018-03-03T02:25:15.073Z,211.82
2018-03-03T02:26:04.135Z,208.18
2018-03-03T02:26:53.198Z,222.07
2018-03-03T02:27:42.248Z,217.45
2018-03-03T02:28:31.324Z,212.57
2018-03-03T02:29:20.457Z,198.27
2018-03-03T02:30:09.611Z,197.20
2018-03-03T02:30:58.662Z,223.07
2018-03-03T02:31:47.707Z,220.07
2018-03-03T02:32:36.770Z,208.20
2018-03-03T02:33:25.823Z,204.13
2018-03-03T02:34:14.956Z,204.55
2018-03-03T02:35:04.198Z,205.05
2018-03-03T02:35:53.254Z,211.85
2018-03-03T02:36:42.314Z,220.68
2018-03-03T02:37:31.371Z,202.85
2018-03-03T02:38:20.415Z,195.90
2018-03-03T02:39:09.469Z,205.68
2018-03-03T02:39:58.529Z,189.75
2018-03-03T02:40:47.633Z,182.93
2018-03-03T02:41:36.683Z,196.25
2018-03-03T02:42:25.738Z,217.60
2018-03-03T02:43:14.792Z,230.62
2018-03-03T02:44:03.841Z,215.50
2018-03-03T02:44:52.901Z,257.87
2018-03-03T02:45:42.064Z,246.40
2018-03-03T02:46:31.162Z,234.35
2018-03-03T02:47:20.235Z,215.40
2018-03-03T02:48:09.295Z,214.10
2018-03-03T02:48:58.404Z,225.30
2018-03-03T02:49:47.449Z,281.67
2018-03-03T02:50:36.489Z,239.02
2018-03-03T02:51:25.535Z,231.18
2018-03-03T02:52:14.579Z,228.20
2018-03-03T02:53:03.619Z,210.52
2018-03-03T02:53:52.671Z,204.25
2018-03-03T02:54:41.811Z,196.35
2018-03-03T02:55:30.874Z,200.10
2018-03-03T02:56:19.922Z,207.18
2018-03-03T02:57:08.973Z,223.68
2018-03-03T02:57:58.022Z,203.95
2018-03-03T02:58:47.074Z,216.38
2018-03-03T02:59:36.113Z,203.02
2018-03-03T03:00:25.205Z,205.73
2018-03-03T03:01:14.256Z,182.93
2018-03-03T03:02:03.326Z,171.20
2018-03-03T03:02:52.401Z,167.27
2018-03-03T03:03:41.450Z,188.48
2018-03-03T03:04:30.545Z,189.68
2018-03-03T03:05:19.591Z,218.23
2018-03-03T03:06:11.717Z,210.75
2018-03-03T03:07:00.776Z,194.98
2018-03-03T03:07:49.842Z,181.25
2018-03-03T03:08:38.879Z,171.77
2018-03-03T03:09:27.943Z,199.38
2018-03-03T03:10:17.005Z,197.62
2018-03-03T03:11:06.043Z,171.75
2018-03-03T03:11:55.180Z,183.98
2018-03-03T03:12:44.244Z,180.77
2018-03-03T03:13:33.298Z,176.68
2018-03-03T03:14:22.336Z,175.68
2018-03-03T03:15:11.362Z,170.15
2018-03-03T03:16:00.399Z,168.40
2018-03-03T03:16:49.446Z,166.62
2018-03-03T03:17:38.560Z,164.20
2018-03-03T03:18:27.613Z,157.93
2018-03-03T03:19:16.663Z,165.32
2018-03-03T03:20:05.702Z,190.23
2018-03-03T03:20:54.757Z,192.45
2018-03-03T03:21:43.821Z,187.95
2018-03-03T03:22:32.869Z,170.00
2018-03-03T03:23:21.981Z,165.77
2018-03-03T03:24:11.050Z,164.27
2018-03-03T03:25:00.088Z,171.60
2018-03-03T03:25:49.131Z,166.15
2018-03-03T03:26:38.203Z,151.12
2018-03-03T03:27:27.283Z,158.10
2018-03-03T03:28:16.356Z,149.77
2018-03-03T03:29:05.485Z,147.73
2018-03-03T03:29:54.529Z,159.60
2018-03-03T03:30:43.588Z,145.25
2018-03-03T03:31:32.652Z,118.78
2018-03-03T03:32:21.867Z,129.23
2018-03-03T03:33:10.911Z,128.43
2018-03-03T03:33:59.949Z,114.22
2018-03-03T03:34:49.010Z,120.60
2018-03-03T03:35:38.066Z,115.25
2018-03-03T03:36:27.121Z,115.35
2018-03-03T03:37:16.164Z,105.65
2018-03-03T03:38:05.234Z,109.90
2018-03-03T03:38:54.286Z,104.43
2018-03-03T03:39:43.325Z,102.28
2018-03-03T03:40:32.362Z,102.55
2018-03-03T03:41:21.412Z,98.65
2018-03-03T03:42:10.448Z,107.97
2018-03-03T03:42:59.478Z,96.85
2018-03-03T03:43:48.545Z,93.90
2018-03-03T03:44:37.570Z,97.28
2018-03-03T03:45:26.626Z,100.78
2018-03-03T03:46:15.672Z,98.65
2018-03-03T03:47:04.701Z,98.90
2018-03-03T03:47:53.757Z,104.87
2018-03-03T03:48:42.798Z,99.55
2018-03-03T03:49:31.936Z,100.15
2018-03-03T03:50:20.966Z,99.53
2018-03-03T03:51:10.007Z,91.12
2018-03-03T03:51:59.038Z,90.25
2018-03-03T03:52:48.077Z,87.90
2018-03-03T03:53:37.105Z,89.00
2018-03-03T03:54:26.136Z,91.97
2018-03-03T03:55:15.225Z,94.75
2018-03-03T03:56:04.269Z,99.10
2018-03-03T03:56:53.303Z,98.78
2018-03-03T03:57:42.352Z,93.55
2018-03-03T03:58:31.406Z,88.82
2018-03-03T03:59:20.438Z,85.22
2018-03-03T04:00:09.470Z,88.65
2018-03-03T04:00:58.562Z,88.20
2018-03-03T04:01:47.604Z,85.85
2018-03-03T04:02:36.644Z,87.72
2018-03-03T04:03:25.690Z,84.22
2018-03-03T04:04:14.725Z,88.95
2018-03-03T04:05:03.770Z,86.18
2018-03-03T04:05:52.798Z,84.80
2018-03-03T04:06:41.938Z,91.70
2018-03-03T04:07:30.970Z,83.10
2018-03-03T04:08:20.005Z,61.92
2018-03-03T04:09:09.097Z,65.22
2018-03-03T04:09:58.130Z,61.53
2018-03-03T04:10:47.234Z,58.70
2018-03-03T04:11:36.260Z,65.82
2018-03-03T04:12:25.301Z,56.90
2018-03-03T04:13:14.340Z,53.47
2018-03-03T04:14:03.373Z,52.00
2018-03-03T04:14:52.414Z,52.25
2018-03-03T04:15:41.453Z,51.25
2018-03-03T04:16:30.533Z,49.47
2018-03-03T04:17:19.562Z,48.97
2018-03-03T04:18:08.597Z,52.83
2018-03-03T04:18:57.629Z,49.63
2018-03-03T04:19:46.663Z,48.47
2018-03-03T04:20:35.822Z,45.08
2018-03-03T04:21:24.853Z,48.80
2018-03-03T04:22:13.885Z,44.92
2018-03-03T04:23:02.919Z,45.97
2018-03-03T04:23:51.991Z,50.17
2018-03-03T04:24:41.040Z,70.07
2018-03-03T04:25:30.104Z,82.90
2018-03-03T04:26:19.193Z,77.53
2018-03-03T04:27:08.266Z,66.97
2018-03-03T04:27:57.310Z,57.90
2018-03-03T04:28:46.371Z,62.58
2018-03-03T04:29:35.430Z,70.43
2018-03-03T04:30:24.482Z,70.47
2018-03-03T04:31:13.529Z,65.90
2018-03-03T04:32:02.693Z,61.22
2018-03-03T04:32:51.746Z,55.53
2018-03-03T04:33:40.805Z,60.22
2018-03-03T04:34:29.857Z,60.00
2018-03-03T04:35:18.946Z,62.40
2018-03-03T04:36:08.011Z,62.83
2018-03-03T04:36:57.036Z,55.28
2018-03-03T04:37:46.098Z,83.85
2018-03-03T04:38:35.155Z,75.53
2018-03-03T04:39:24.190Z,91.32
2018-03-03T04:40:13.229Z,88.72
2018-03-03T04:41:02.337Z,74.10
2018-03-03T04:41:51.369Z,71.37
2018-03-03T04:42:40.416Z,73.87
2018-03-03T04:43:29.472Z,77.75
2018-03-03T04:44:18.551Z,79.53
2018-03-03T04:45:07.596Z,76.55
2018-03-03T04:45:56.708Z,88.25
2018-03-03T04:46:45.780Z,64.45
2018-03-03T04:47:34.982Z,51.92
2018-03-03T04:48:24.042Z,59.72
2018-03-03T04:49:13.144Z,51.30
2018-03-03T04:50:02.173Z,49.90
2018-03-03T04:50:51.246Z,49.55
2018-03-03T04:51:40.308Z,48.05
2018-03-03T04:52:29.372Z,44.35
2018-03-03T04:53:18.538Z,47.17
2018-03-03T04:54:07.588Z,53.58
2018-03-03T04:54:56.687Z,48.83
2018-03-03T04:55:45.729Z,51.33
2018-03-03T04:56:34.875Z,54.97
2018-03-03T04:57:23.938Z,54.78
2018-03-03T04:58:22.977Z,58.92
2018-03-03T05:00:37.735Z,59.13
2018-03-03T05:02:58.742Z,55.05
2018-03-03T05:03:53.367Z,46.40
2018-03-03T05:05:00.026Z,44.70
2018-03-03T05:06:07.697Z,49.97
2018-03-03T05:07:02.205Z,47.75
2018-03-03T05:07:54.733Z,64.43
2018-03-03T05:08:43.811Z,75.93
2018-03-03T05:09:32.888Z,57.92
2018-03-03T05:10:23.671Z,70.15
2018-03-03T05:11:16.148Z,65.90
2018-03-03T05:12:05.203Z,59.13
2018-03-03T05:13:11.027Z,61.17
2018-03-03T05:14:05.514Z,65.37
2018-03-03T05:15:09.155Z,78.47
2018-03-03T05:16:16.810Z,69.53
2018-03-03T05:17:11.345Z,71.78
2018-03-03T05:18:05.930Z,101.40
2018-03-03T05:19:11.274Z,112.57
2018-03-03T05:20:05.917Z,120.53
2018-03-03T05:21:00.498Z,120.95
2018-03-03T05:21:54.931Z,127.85
2018-03-03T05:22:49.473Z,114.05
2018-03-03T05:23:44.096Z,144.27
2018-03-03T05:24:38.630Z,156.32
2018-03-03T05:25:33.184Z,143.62
2018-03-03T05:26:37.102Z,154.30
2018-03-03T05:27:31.764Z,164.52
2018-03-03T05:28:26.294Z,196.93
2018-03-03T05:29:35.358Z,199.82
2018-03-03T05:31:48.978Z,221.62
2018-03-03T05:32:43.555Z,181.65
2018-03-03T05:33:38.149Z,167.85
2018-03-03T05:35:59.766Z,92.47
2018-03-03T05:38:22.488Z,213.48
2018-03-03T05:39:28.199Z,189.52
2018-03-03T05:40:22.775Z,167.10
2018-03-03T05:41:17.255Z,175.93
2018-03-03T05:42:11.939Z,192.30
2018-03-03T05:43:07.376Z,194.93
2018-03-03T05:44:02.045Z,237.07
2018-03-03T05:44:55.947Z,223.75
2018-03-03T05:46:03.771Z,248.85
2018-03-03T05:46:58.426Z,159.30
2018-03-03T05:47:52.937Z,178.05
2018-03-03T05:50:18.060Z,191.20
2018-03-03T05:53:10.811Z,217.98
2018-03-03T05:54:05.270Z,292.83
2018-03-03T05:54:59.746Z,258.33
2018-03-03T05:57:32.303Z,247.27
2018-03-03T05:58:37.080Z,250.68
2018-03-03T05:59:31.619Z,236.98
2018-03-03T06:01:43.754Z,243.60
2018-03-03T06:02:33.674Z,221.05
2018-03-03T06:03:28.439Z,223.20
2018-03-03T06:04:18.580Z,266.65
2018-03-03T06:05:23.264Z,257.00
2018-03-03T06:07:42.142Z,269.23
2018-03-03T06:08:37.716Z,178.73
2018-03-03T06:09:41.752Z,150.38
2018-03-03T06:10:49.378Z,148.32
2018-03-03T06:11:43.847Z,160.52
2018-03-03T06:12:32.925Z,175.23
2018-03-03T06:13:22.095Z,218.18
2018-03-03T06:14:11.201Z,291.73
2018-03-03T06:15:00.309Z,222.52
2018-03-03T06:15:49.374Z,271.25
2018-03-03T06:16:38.472Z,276.35
2018-03-03T06:17:27.553Z,163.43
2018-03-03T06:18:16.615Z,136.45
2018-03-03T06:19:05.707Z,160.07
2018-03-03T06:19:54.819Z,147.73
2018-03-03T06:20:43.873Z,149.77
2018-03-03T06:21:32.931Z,154.15
2018-03-03T06:22:22.006Z,241.12
2018-03-03T06:23:11.075Z,167.30
2018-03-03T06:24:00.142Z,119.82
2018-03-03T06:24:49.195Z,83.43
2018-03-03T06:25:38.325Z,87.30
2018-03-03T06:26:27.361Z,82.70
2018-03-03T06:27:16.420Z,90.85
2018-03-03T06:28:05.452Z,91.55
2018-03-03T06:28:54.537Z,101.55
2018-03-03T06:29:43.635Z,89.22
2018-03-03T06:30:32.719Z,92.82
2018-03-03T06:31:21.911Z,88.12
2018-03-03T06:32:10.952Z,86.45
2018-03-03T06:32:59.982Z,69.47
2018-03-03T06:33:49.016Z,73.70
2018-03-03T06:34:38.050Z,78.87
2018-03-03T06:35:27.085Z,61.30
2018-03-03T06:36:16.138Z,60.70
2018-03-03T06:37:05.376Z,64.28
2018-03-03T06:37:54.448Z,64.80
2018-03-03T06:38:43.503Z,65.28
2018-03-03T06:39:32.570Z,77.62
2018-03-03T06:40:21.718Z,171.82
2018-03-03T06:41:10.887Z,167.10
2018-03-03T06:42:00.227Z,152.90
2018-03-03T06:42:49.315Z,142.10
2018-03-03T06:43:38.386Z,174.02
2018-03-03T06:44:27.441Z,215.30
2018-03-03T06:45:16.522Z,235.80
2018-03-03T06:46:05.595Z,141.18
2018-03-03T06:46:54.650Z,118.87
2018-03-03T06:47:43.698Z,80.90
2018-03-03T06:48:32.834Z,101.95
2018-03-03T06:49:22.053Z,210.60
2018-03-03T06:50:11.109Z,253.15
2018-03-03T06:51:00.166Z,261.77
2018-03-03T06:51:49.235Z,190.02
2018-03-03T06:52:38.462Z,220.57
2018-03-03T06:53:27.552Z,194.55
2018-03-03T06:54:17.226Z,196.57
2018-03-03T06:55:07.753Z,176.15
2018-03-03T06:55:56.815Z,164.20
2018-03-03T06:56:45.876Z,163.15
2018-03-03T06:57:34.925Z,158.55
2018-03-03T06:58:23.968Z,165.20
2018-03-03T06:59:13.065Z,154.57
2018-03-03T07:00:02.150Z,142.52
2018-03-03T07:00:51.225Z,147.43
2018-03-03T07:01:40.299Z,115.03
2018-03-03T07:02:29.355Z,122.53
2018-03-03T07:03:18.486Z,128.82
2018-03-03T07:04:07.906Z,109.93
2018-03-03T07:04:56.961Z,104.32
2018-03-03T07:05:46.019Z,100.25
2018-03-03T07:06:35.068Z,113.03
2018-03-03T07:07:24.197Z,129.18
2018-03-03T07:08:13.271Z,115.70
2018-03-03T07:09:02.315Z,104.72
2018-03-03T07:09:51.394Z,132.30
2018-03-03T07:10:40.451Z,120.60
2018-03-03T07:11:29.611Z,122.10
2018-03-03T07:12:18.677Z,111.15
2018-03-03T07:13:07.736Z,106.37
2018-03-03T07:13:56.789Z,93.62
2018-03-03T07:14:51.399Z,104.80
2018-03-03T07:15:40.554Z,112.78
2018-03-03T07:16:29.625Z,103.82
2018-03-03T07:17:18.810Z,84.82
2018-03-03T07:18:07.867Z,104.72
2018-03-03T07:18:56.913Z,64.07
2018-03-03T07:19:45.976Z,109.18
2018-03-03T07:20:35.008Z,91.22
2018-03-03T07:21:24.108Z,100.20
2018-03-03T07:22:13.230Z,118.50
2018-03-03T07:23:02.262Z,84.82
2018-03-03T07:23:51.327Z,60.90
2018-03-03T07:24:40.368Z,53.15
2018-03-03T07:25:29.422Z,56.35
2018-03-03T07:26:18.501Z,55.53
2018-03-03T07:27:07.535Z,46.95
2018-03-03T07:27:56.609Z,53.92
2018-03-03T07:28:45.705Z,42.30
2018-03-03T07:29:34.725Z,45.67
2018-03-03T07:30:23.762Z,45.53
2018-03-03T07:31:12.801Z,73.97
2018-03-03T07:32:01.943Z,120.03
2018-03-03T07:32:50.975Z,106.03
2018-03-03T07:33:40.034Z,51.10
2018-03-03T07:34:29.064Z,53.15
2018-03-03T07:35:18.122Z,43.90
2018-03-03T07:36:07.171Z,41.40
2018-03-03T07:36:56.312Z,32.72
2018-03-03T07:37:45.412Z,35.58
2018-03-03T07:38:34.451Z,35.40
2018-03-03T07:39:23.502Z,38.65
2018-03-03T07:40:12.576Z,36.90
2018-03-03T07:41:01.618Z,44.60
2018-03-03T07:41:50.658Z,56.50
2018-03-03T07:42:39.791Z,60.20
2018-03-03T07:43:28.820Z,54.72
2018-03-03T07:44:17.864Z,48.03
2018-03-03T07:45:06.939Z,41.45
2018-03-03T07:45:55.994Z,38.08
2018-03-03T07:46:45.028Z,44.67
2018-03-03T07:47:34.074Z,47.33
2018-03-03T07:48:23.142Z,54.10
2018-03-03T07:49:12.202Z,63.50
2018-03-03T07:50:01.261Z,54.85
2018-03-03T07:50:50.353Z,58.53
2018-03-03T07:51:39.414Z,67.10
2018-03-03T07:52:28.453Z,100.65
2018-03-03T07:53:17.491Z,92.62
2018-03-03T07:54:06.695Z,73.40
2018-03-03T07:54:55.783Z,49.33
2018-03-03T07:55:44.822Z,107.72
2018-03-03T07:56:45.560Z,60.92
2018-03-03T07:57:34.686Z,56.33
2018-03-03T07:59:50.374Z,50.72
2018-03-03T08:00:39.690Z,44.92
2018-03-03T08:01:28.726Z,42.35
2018-03-03T08:02:17.762Z,48.55
2018-03-03T08:03:06.906Z,60.53
2018-03-03T08:03:55.984Z,77.53
2018-03-03T08:04:45.034Z,71.15
2018-03-03T08:05:34.100Z,58.92
2018-03-03T08:06:23.143Z,59.88
2018-03-03T08:07:12.213Z,54.28
2018-03-03T08:08:01.281Z,56.80
2018-03-03T08:08:50.388Z,69.80
2018-03-03T08:09:39.449Z,53.00
2018-03-03T08:10:28.492Z,59.53
2018-03-03T08:11:17.537Z,59.42
2018-03-03T08:12:06.592Z,67.85
2018-03-03T08:12:55.624Z,70.97
2018-03-03T08:13:44.684Z,66.93
2018-03-03T08:14:33.787Z,46.47
2018-03-03T08:15:22.976Z,47.05
2018-03-03T08:16:12.026Z,66.40
2018-03-03T08:17:01.068Z,55.67
2018-03-03T08:17:50.117Z,50.90
2018-03-03T08:18:39.151Z,86.05
2018-03-03T08:19:28.196Z,104.07
2018-03-03T08:20:17.483Z,93.07
2018-03-03T08:21:06.522Z,116.70
2018-03-03T08:21:55.556Z,85.72
2018-03-03T08:22:44.609Z,89.78
2018-03-03T08:23:33.643Z,72.12
2018-03-03T08:24:22.735Z,77.60
2018-03-03T08:25:11.778Z,79.18
2018-03-03T08:26:00.943Z,100.47
2018-03-03T08:26:49.998Z,64.65
2018-03-03T08:27:39.102Z,75.32
2018-03-03T08:28:28.186Z,78.07
2018-03-03T08:29:17.225Z,56.13
2018-03-03T08:30:06.371Z,62.50
2018-03-03T08:30:55.420Z,65.47
2018-03-03T08:31:44.640Z,63.63
2018-03-03T08:32:33.778Z,47.25
2018-03-03T08:33:22.831Z,37.35
2018-03-03T08:34:11.945Z,24.90
2018-03-03T08:35:00.984Z,27.17
2018-03-03T08:35:50.024Z,35.50
2018-03-03T08:36:39.185Z,44.85
2018-03-03T08:37:28.226Z,46.78
2018-03-03T08:38:17.276Z,53.28
2018-03-03T08:39:06.352Z,35.75
2018-03-03T08:39:55.412Z,34.17
2018-03-03T08:40:44.445Z,41.20
2018-03-03T08:41:33.493Z,93.57
2018-03-03T08:42:22.580Z,124.38
2018-03-03T08:43:11.626Z,130.43
2018-03-03T08:44:00.700Z,155.15
2018-03-03T08:44:49.772Z,156.40
2018-03-03T08:45:38.834Z,139.75
2018-03-03T08:46:27.915Z,128.30
2018-03-03T08:47:16.959Z,204.98
2018-03-03T08:48:06.141Z,208.77
2018-03-03T08:48:55.195Z,216.60
2018-03-03T08:49:44.302Z,173.00
2018-03-03T08:50:33.350Z,169.07
2018-03-03T08:51:22.479Z,145.93
2018-03-03T08:52:11.502Z,134.05
2018-03-03T08:53:00.553Z,128.50
2018-03-03T08:53:49.594Z,137.07
2018-03-03T08:54:38.655Z,140.70
2018-03-03T08:55:27.790Z,170.02
2018-03-03T08:56:16.876Z,121.97
2018-03-03T08:57:05.942Z,86.22
2018-03-03T08:57:54.992Z,104.15
2018-03-03T08:58:44.037Z,114.57
2018-03-03T08:59:33.132Z,108.85
2018-03-03T09:00:22.169Z,116.97
2018-03-03T09:01:11.196Z,110.20
2018-03-03T09:02:00.242Z,94.95
2018-03-03T09:02:50.158Z,113.45
2018-03-03T09:03:39.190Z,114.00
2018-03-03T09:04:28.355Z,106.40
2018-03-03T09:05:17.524Z,65.18
2018-03-03T09:06:06.553Z,69.95
2018-03-03T09:06:55.600Z,54.00
2018-03-03T09:07:44.696Z,39.70
2018-03-03T09:08:33.744Z,40.10
2018-03-03T09:09:22.788Z,48.30
2018-03-03T09:10:11.977Z,48.17
2018-03-03T09:11:01.009Z,55.80
2018-03-03T09:11:50.049Z,60.58
2018-03-03T09:12:39.142Z,37.90
2018-03-03T09:13:28.182Z,22.15
2018-03-03T09:14:17.229Z,19.23
2018-03-03T09:15:06.269Z,20.77
2018-03-03T09:15:55.346Z,15.98
2018-03-03T09:16:44.429Z,15.13
2018-03-03T09:17:33.502Z,26.50
2018-03-03T09:18:22.593Z,27.40
2018-03-03T09:19:11.641Z,26.15
2018-03-03T09:20:00.702Z,26.10
2018-03-03T09:20:49.826Z,30.35
2018-03-03T09:21:38.881Z,26.17
2018-03-03T09:22:27.981Z,30.30
2018-03-03T09:23:17.066Z,34.47
2018-03-03T09:24:06.111Z,41.60
2018-03-03T09:24:55.141Z,34.95
2018-03-03T09:25:44.180Z,42.42
2018-03-03T09:26:33.353Z,29.10
2018-03-03T09:27:22.413Z,29.00
2018-03-03T09:28:11.462Z,33.63
2018-03-03T09:29:00.564Z,34.08
2018-03-03T09:29:49.636Z,43.70
2018-03-03T09:30:38.779Z,33.33
2018-03-03T09:31:27.887Z,35.17
2018-03-03T09:32:16.930Z,29.20
2018-03-03T09:33:06.010Z,23.75
2018-03-03T09:33:55.058Z,18.70
2018-03-03T09:34:44.284Z,16.85
2018-03-03T09:35:33.316Z,15.57
2018-03-03T09:36:22.377Z,12.25
2018-03-03T09:37:11.433Z,15.18
2018-03-03T09:38:00.462Z,44.45
2018-03-03T09:38:49.531Z,28.17
2018-03-03T09:39:38.560Z,87.00
2018-03-03T09:40:27.663Z,31.92
2018-03-03T09:41:16.696Z,32.22
2018-03-03T09:42:05.871Z,33.47
2018-03-03T09:42:54.914Z,156.15
2018-03-03T09:43:44.024Z,34.55
2018-03-03T09:44:33.092Z,28.27
2018-03-03T09:45:22.142Z,21.45
2018-03-03T09:46:11.182Z,19.08
2018-03-03T09:47:00.295Z,37.58
2018-03-03T09:47:49.365Z,11.65
2018-03-03T09:48:38.438Z,11.70
2018-03-03T09:49:27.509Z,13.02
2018-03-03T09:50:16.579Z,12.63
2018-03-03T09:51:05.642Z,13.15
2018-03-03T09:51:54.742Z,11.50
2018-03-03T09:52:43.799Z,13.73
2018-03-03T09:53:32.863Z,23.73
2018-03-03T09:54:21.921Z,40.92
2018-03-03T09:55:10.980Z,22.08
2018-03-03T09:56:00.039Z,35.28
2018-03-03T09:56:49.152Z,28.55
2018-03-03T09:57:38.191Z,20.88
2018-03-03T09:58:27.237Z,25.10
2018-03-03T09:59:16.281Z,26.75
2018-03-03T10:00:05.332Z,35.13
2018-03-03T10:00:54.518Z,31.60
2018-03-03T10:01:43.610Z,18.12
2018-03-03T10:02:32.701Z,16.98
2018-03-03T10:03:21.737Z,10.68
2018-03-03T10:04:10.784Z,12.45
2018-03-03T10:04:59.815Z,9.15
2018-03-03T10:05:48.870Z,8.10
2018-03-03T10:06:37.972Z,6.18
2018-03-03T10:07:27.005Z,10.07
2018-03-03T10:08:16.054Z,26.90
2018-03-03T10:09:05.131Z,17.00
2018-03-03T10:09:54.178Z,16.02
2018-03-03T10:10:43.245Z,18.23
2018-03-03T10:11:32.327Z,13.50
2018-03-03T10:12:21.385Z,6.65
2018-03-03T10:13:10.424Z,20.23
2018-03-03T10:13:59.491Z,11.20
2018-03-03T10:14:48.698Z,6.15
2018-03-03T10:15:37.765Z,11.15
2018-03-03T10:16:26.799Z,10.95
2018-03-03T10:17:15.834Z,14.27
2018-03-03T10:18:04.981Z,16.60
2018-03-03T10:18:54.049Z,10.73
2018-03-03T10:19:43.102Z,18.02
2018-03-03T10:20:32.336Z,23.20
2018-03-03T10:21:21.387Z,17.08
2018-03-03T10:22:10.431Z,5.28
2018-03-03T10:22:59.482Z,10.70
2018-03-03T10:23:48.537Z,11.48
2018-03-03T10:24:37.577Z,10.48
2018-03-03T10:25:26.616Z,14.30
2018-03-03T10:26:15.719Z,6.62
2018-03-03T10:27:04.946Z,9.10
2018-03-03T10:27:54.020Z,7.25
2018-03-03T10:28:43.051Z,8.77
2018-03-03T10:29:32.084Z,9.40
2018-03-03T10:30:21.140Z,17.08
2018-03-03T10:31:10.199Z,11.88
2018-03-03T10:31:59.279Z,9.38
2018-03-03T10:32:48.423Z,10.80
2018-03-03T10:33:37.459Z,8.70
2018-03-03T10:34:26.528Z,6.18
2018-03-03T10:35:15.553Z,13.70
2018-03-03T10:36:04.572Z,10.95
2018-03-03T10:36:53.629Z,8.55
2018-03-03T10:37:42.658Z,11.45
2018-03-03T10:38:31.865Z,13.77
2018-03-03T10:39:20.915Z,27.55
2018-03-03T10:40:09.970Z,13.07
2018-03-03T10:40:59.020Z,10.35
2018-03-03T10:41:48.097Z,8.50
2018-03-03T10:42:37.132Z,5.72
2018-03-03T10:43:26.217Z,6.60
2018-03-03T10:44:15.270Z,6.93
2018-03-03T10:45:04.297Z,7.87
2018-03-03T10:45:53.329Z,12.43
2018-03-03T10:46:42.374Z,6.43
2018-03-03T10:47:31.414Z,2.70
2018-03-03T10:48:20.469Z,5.70